Terminal Aerodrome Forecast
Issued by NWS Blacksburg, VA

Home | Current Version | Previous Version | Text Only | Print | Product List | Glossary On
Versions: 1 2 3 4 5 6 7 8 9 10 11 12 13 14 15 16 17 18
000
FTUS41 KRNK 221203 RRA
TAFBLF
TAF
KBLF 221203Z 2212/2312 17008KT P6SM OVC080
     FM222200 18011G19KT P6SM VCSH OVC050
     FM230100 17010G18KT 5SM -SHRA BR OVC035 WS020/19040KT
     FM230300 17011G20KT 2SM -SHRA BR OVC015 WS020/19045KT
      TEMPO 2304/2306 VRB20G35KT 2SM +SHRA BR OVC004
     FM231000 24010G18KT 3/4SM -SHRA BR OVC004=

USA.gov is the U.S. government's official web portal to all federal, state and local government web resources and services.